createdAt,value
2018-08-30T00:01:02.493Z,4.43
2018-08-30T00:03:30.628Z,3.13
2018-08-30T00:05:58.795Z,3.80
2018-08-30T00:08:26.876Z,3.43
2018-08-30T00:10:55.053Z,3.20
2018-08-30T00:13:23.238Z,3.90
2018-08-30T00:15:51.307Z,3.77
2018-08-30T00:18:19.379Z,4.57
2018-08-30T00:20:47.433Z,3.77
2018-08-30T00:23:15.488Z,5.93
2018-08-30T00:25:43.584Z,3.70
2018-08-30T00:28:11.759Z,3.80
2018-08-30T00:30:39.956Z,4.60
2018-08-30T00:33:08.028Z,3.57
2018-08-30T00:35:36.144Z,3.97
2018-08-30T00:38:04.211Z,3.83
2018-08-30T00:40:32.636Z,4.23
2018-08-30T00:43:00.683Z,3.70
2018-08-30T00:45:28.762Z,5.27
2018-08-30T00:47:56.856Z,3.53
2018-08-30T00:50:25.279Z,4.87
2018-08-30T00:52:53.424Z,4.30
2018-08-30T00:55:21.488Z,3.20
2018-08-30T00:57:49.576Z,4.10
2018-08-30T01:00:17.621Z,4.10
2018-08-30T01:02:45.700Z,3.40
2018-08-30T01:05:13.777Z,3.47
2018-08-30T01:07:41.868Z,2.90
2018-08-30T01:10:09.951Z,3.27
2018-08-30T01:12:42.337Z,3.97
2018-08-30T01:15:10.417Z,3.67
2018-08-30T01:17:38.563Z,4.13
2018-08-30T01:20:06.629Z,3.00
2018-08-30T01:22:34.915Z,2.73
2018-08-30T01:25:03.320Z,3.13
2018-08-30T01:27:31.469Z,3.17
2018-08-30T01:29:59.584Z,2.63
2018-08-30T01:32:27.701Z,2.73
2018-08-30T01:34:55.775Z,3.83
2018-08-30T01:37:24.004Z,2.97
2018-08-30T01:39:52.076Z,2.87
2018-08-30T01:42:20.626Z,3.30
2018-08-30T01:44:48.733Z,3.07
2018-08-30T01:47:16.853Z,3.10
2018-08-30T01:49:45.025Z,3.97
2018-08-30T01:52:13.253Z,2.80
2018-08-30T01:54:41.453Z,2.63
2018-08-30T01:57:09.636Z,2.13
2018-08-30T01:59:37.709Z,3.70
2018-08-30T02:02:05.821Z,2.00
2018-08-30T02:04:33.874Z,2.70
2018-08-30T02:07:01.948Z,2.90
2018-08-30T02:09:30.077Z,2.03
2018-08-30T02:11:58.148Z,2.30
2018-08-30T02:14:26.226Z,3.23
2018-08-30T02:16:54.521Z,2.83
2018-08-30T02:19:22.879Z,2.83
2018-08-30T02:21:50.948Z,3.03
2018-08-30T02:24:19.239Z,2.50
2018-08-30T02:26:47.317Z,2.83
2018-08-30T02:29:15.505Z,2.67
2018-08-30T02:31:43.551Z,4.77
2018-08-30T02:34:11.673Z,4.20
2018-08-30T02:36:39.724Z,2.47
2018-08-30T02:39:08.601Z,2.50
2018-08-30T02:41:36.669Z,2.67
2018-08-30T02:44:05.001Z,2.60
2018-08-30T02:46:33.177Z,2.60
2018-08-30T02:49:01.310Z,3.23
2018-08-30T02:51:29.537Z,2.90
2018-08-30T02:53:57.653Z,4.93
2018-08-30T02:56:25.877Z,3.03
2018-08-30T02:58:54.037Z,2.87
2018-08-30T03:01:22.165Z,3.20
2018-08-30T03:03:50.295Z,3.50
2018-08-30T03:06:18.361Z,3.80
2018-08-30T03:08:46.932Z,3.20
2018-08-30T03:11:14.988Z,3.03
2018-08-30T03:13:43.300Z,2.97
2018-08-30T03:16:11.393Z,2.97
2018-08-30T03:18:39.557Z,3.10
2018-08-30T03:21:07.989Z,2.80
2018-08-30T03:23:36.160Z,3.17
2018-08-30T03:26:04.245Z,2.67
2018-08-30T03:28:32.301Z,3.97
2018-08-30T03:31:00.416Z,3.47
2018-08-30T03:33:28.683Z,5.13
2018-08-30T03:35:57.617Z,3.73
2018-08-30T03:38:25.669Z,3.83
2018-08-30T03:40:53.756Z,4.10
2018-08-30T03:43:21.870Z,4.43
2018-08-30T03:45:49.954Z,4.17
2018-08-30T03:48:18.051Z,4.00
2018-08-30T03:50:46.245Z,3.90
2018-08-30T03:53:14.376Z,4.40
2018-08-30T03:55:42.453Z,4.50
2018-08-30T03:58:10.574Z,4.17
2018-08-30T04:00:39.001Z,4.87
2018-08-30T04:03:07.049Z,5.37
2018-08-30T04:05:35.101Z,6.53
2018-08-30T04:08:03.165Z,4.43
2018-08-30T04:10:31.756Z,4.57
2018-08-30T04:12:59.819Z,4.30
2018-08-30T04:15:27.972Z,4.87
2018-08-30T04:17:56.054Z,4.47
2018-08-30T04:20:24.212Z,4.40
2018-08-30T04:22:52.324Z,5.50
2018-08-30T04:25:20.395Z,3.70
2018-08-30T04:27:48.499Z,4.03
2018-08-30T04:30:16.595Z,4.10
2018-08-30T04:32:44.653Z,4.00
2018-08-30T04:35:12.726Z,3.53
2018-08-30T04:37:40.864Z,5.10
2018-08-30T04:40:09.264Z,3.90
2018-08-30T04:42:37.440Z,3.83
2018-08-30T04:45:06.028Z,3.37
2018-08-30T04:47:34.120Z,4.20
2018-08-30T04:50:02.291Z,3.70
2018-08-30T04:52:30.628Z,4.20
2018-08-30T04:54:58.682Z,3.50
2018-08-30T04:57:26.748Z,3.60
2018-08-30T04:59:54.852Z,3.50
2018-08-30T05:02:22.910Z,3.50
2018-08-30T05:04:51.159Z,3.47
2018-08-30T05:07:19.209Z,4.00
2018-08-30T05:09:47.305Z,3.50
2018-08-30T05:12:15.415Z,3.70
2018-08-30T05:14:43.465Z,5.47
2018-08-30T05:17:11.880Z,5.00
2018-08-30T05:19:39.969Z,3.53
2018-08-30T05:22:08.069Z,3.50
2018-08-30T05:24:36.133Z,3.40
2018-08-30T05:27:05.557Z,3.33
2018-08-30T05:29:34.684Z,3.70
2018-08-30T05:32:02.895Z,3.43
2018-08-30T05:34:31.036Z,3.90
2018-08-30T05:36:59.103Z,4.03
2018-08-30T05:39:27.277Z,3.37
2018-08-30T05:41:55.794Z,3.57
2018-08-30T05:44:23.945Z,3.27
2018-08-30T05:46:52.053Z,4.70
2018-08-30T05:49:20.411Z,5.90
2018-08-30T05:51:48.511Z,4.30
2018-08-30T05:54:16.616Z,5.67
2018-08-30T05:56:44.829Z,4.13
2018-08-30T05:59:13.094Z,5.87
2018-08-30T06:01:41.183Z,4.80
2018-08-30T06:04:09.239Z,4.80
2018-08-30T06:06:37.517Z,4.47
2018-08-30T06:09:05.765Z,5.17
2018-08-30T06:11:33.937Z,4.80
2018-08-30T06:14:01.984Z,5.47
2018-08-30T06:16:30.057Z,4.73
2018-08-30T06:18:58.249Z,7.50
2018-08-30T06:21:26.345Z,5.50
2018-08-30T06:23:54.465Z,4.83
2018-08-30T06:26:22.609Z,5.20
2018-08-30T06:28:50.844Z,6.00
2018-08-30T06:31:18.952Z,5.50
2018-08-30T06:33:47.096Z,5.53
2018-08-30T06:36:15.203Z,5.97
2018-08-30T06:38:43.385Z,8.20
2018-08-30T06:41:11.590Z,6.43
2018-08-30T06:43:39.661Z,6.73
2018-08-30T06:46:07.969Z,7.20
2018-08-30T06:48:36.297Z,6.07
2018-08-30T06:51:04.522Z,6.00
2018-08-30T06:53:33.183Z,7.20
2018-08-30T06:56:01.255Z,7.23
2018-08-30T06:58:29.434Z,6.23
2018-08-30T07:00:58.252Z,5.90
2018-08-30T07:03:26.314Z,5.70
2018-08-30T07:05:54.402Z,6.53
2018-08-30T07:08:22.470Z,7.00
2018-08-30T07:10:50.713Z,7.20
2018-08-30T07:13:18.837Z,7.20
2018-08-30T07:15:47.252Z,6.57
2018-08-30T07:18:15.340Z,6.50
2018-08-30T07:20:43.405Z,6.87
2018-08-30T07:23:11.492Z,6.53
2018-08-30T07:25:39.661Z,6.03
2018-08-30T07:28:07.761Z,6.17
2018-08-30T07:30:35.921Z,6.43
2018-08-30T07:33:04.337Z,8.43
2018-08-30T07:35:32.385Z,5.57
2018-08-30T07:38:00.512Z,4.50
2018-08-30T07:40:28.581Z,4.40
2018-08-30T07:42:56.666Z,5.33
2018-08-30T07:45:24.737Z,5.07
2018-08-30T07:47:52.801Z,7.10
2018-08-30T07:50:20.881Z,5.50
2018-08-30T07:52:48.949Z,5.00
2018-08-30T07:55:17.182Z,4.83
2018-08-30T07:57:45.256Z,4.63
2018-08-30T08:00:13.307Z,4.27
2018-08-30T08:02:41.577Z,4.67
2018-08-30T08:05:09.670Z,5.33
2018-08-30T08:07:37.795Z,4.37
2018-08-30T08:10:06.203Z,4.73
2018-08-30T08:12:34.291Z,5.40
2018-08-30T08:15:02.645Z,3.73
2018-08-30T08:17:30.757Z,3.93
2018-08-30T08:19:58.830Z,4.20
2018-08-30T08:22:26.921Z,4.37
2018-08-30T08:24:54.990Z,4.23
2018-08-30T08:27:23.053Z,3.67
2018-08-30T08:29:51.162Z,4.63
2018-08-30T08:32:19.353Z,3.67
2018-08-30T08:34:47.446Z,3.10
2018-08-30T08:37:15.619Z,5.60
2018-08-30T08:39:43.684Z,3.97
2018-08-30T08:42:11.837Z,4.63
2018-08-30T08:44:40.256Z,4.50
2018-08-30T08:47:08.403Z,4.57
2018-08-30T08:49:37.301Z,4.70
2018-08-30T08:52:05.410Z,4.93
2018-08-30T08:54:33.808Z,4.57
2018-08-30T08:57:01.888Z,3.93
2018-08-30T08:59:29.940Z,3.40
2018-08-30T09:01:58.345Z,4.20
2018-08-30T09:04:26.604Z,4.70
2018-08-30T09:06:54.805Z,4.37
2018-08-30T09:09:22.993Z,4.03
2018-08-30T09:11:51.080Z,3.90
2018-08-30T09:14:19.176Z,4.20
2018-08-30T09:16:47.418Z,5.03
2018-08-30T09:19:15.480Z,4.70
2018-08-30T09:21:43.561Z,4.57
2018-08-30T09:24:11.634Z,4.33
2018-08-30T09:26:40.103Z,4.40
2018-08-30T09:29:08.318Z,5.00
2018-08-30T09:31:36.403Z,5.10
2018-08-30T09:34:04.821Z,4.50
2018-08-30T09:36:32.912Z,4.63
2018-08-30T09:39:00.984Z,4.23
2018-08-30T09:41:29.052Z,4.50
2018-08-30T09:43:57.144Z,3.80
2018-08-30T09:46:25.205Z,3.77
2018-08-30T09:48:53.275Z,4.17
2018-08-30T09:51:21.390Z,4.27
2018-08-30T09:53:49.441Z,4.30
2018-08-30T09:56:17.535Z,4.60
2018-08-30T09:58:45.613Z,4.70
2018-08-30T10:01:19.061Z,3.97
2018-08-30T10:03:47.163Z,4.13
2018-08-30T10:06:15.390Z,5.23
2018-08-30T10:08:43.688Z,4.20
2018-08-30T10:11:11.808Z,5.47
2018-08-30T10:13:39.895Z,4.83
2018-08-30T10:16:07.984Z,4.90
2018-08-30T10:18:36.074Z,5.43
2018-08-30T10:21:04.547Z,4.87
2018-08-30T10:23:32.659Z,5.33
2018-08-30T10:26:00.712Z,4.50
2018-08-30T10:28:28.832Z,4.60
2018-08-30T10:30:56.909Z,5.83
2018-08-30T10:33:24.989Z,3.80
2018-08-30T10:35:53.130Z,6.07
2018-08-30T10:38:21.225Z,4.60
2018-08-30T10:40:49.425Z,5.50
2018-08-30T10:43:17.564Z,4.60
2018-08-30T10:45:45.640Z,4.40
2018-08-30T10:48:13.793Z,5.90
2018-08-30T10:50:41.875Z,5.40
2018-08-30T10:53:10.085Z,4.70
2018-08-30T10:55:38.259Z,5.10
2018-08-30T10:58:06.400Z,5.77
2018-08-30T11:00:35.037Z,5.10
2018-08-30T11:03:03.165Z,4.87
2018-08-30T11:05:31.707Z,5.10
2018-08-30T11:07:59.895Z,5.20
2018-08-30T11:10:28.148Z,5.00
2018-08-30T11:12:56.337Z,6.93
2018-08-30T11:15:24.611Z,5.60
2018-08-30T11:17:53.207Z,5.33
2018-08-30T11:20:21.256Z,5.53
2018-08-30T11:22:49.478Z,6.13
2018-08-30T11:25:17.544Z,5.47
2018-08-30T11:27:46.132Z,6.07
2018-08-30T11:30:14.235Z,6.03
2018-08-30T11:32:42.310Z,5.20
2018-08-30T11:35:10.482Z,5.87
2018-08-30T11:37:38.607Z,5.57
2018-08-30T11:40:06.861Z,6.50
2018-08-30T11:42:35.004Z,6.57
2018-08-30T11:45:03.433Z,7.07
2018-08-30T11:47:31.503Z,6.83
2018-08-30T11:49:59.602Z,7.10
2018-08-30T11:52:27.840Z,6.30
2018-08-30T11:54:56.156Z,6.03
2018-08-30T11:57:24.447Z,9.70
2018-08-30T11:59:53.080Z,6.13
2018-08-30T12:02:21.256Z,5.80
2018-08-30T12:04:50.828Z,7.57
2018-08-30T12:07:18.885Z,6.77
2018-08-30T12:09:47.174Z,7.17
2018-08-30T12:12:15.258Z,6.00
2018-08-30T12:14:43.299Z,6.53
2018-08-30T12:17:11.362Z,6.50
2018-08-30T12:19:39.604Z,6.47
2018-08-30T12:22:07.735Z,6.70
2018-08-30T12:24:35.924Z,7.07
2018-08-30T12:27:04.178Z,6.50
2018-08-30T12:29:32.510Z,6.77
2018-08-30T12:32:01.376Z,7.83
2018-08-30T12:34:29.673Z,6.53
2018-08-30T12:36:57.949Z,7.53
2018-08-30T12:39:26.284Z,6.47
2018-08-30T12:41:54.526Z,6.40
2018-08-30T12:44:22.855Z,6.73
2018-08-30T12:46:51.076Z,6.53
2018-08-30T12:49:19.220Z,5.90
2018-08-30T12:51:47.650Z,6.60
2018-08-30T12:54:15.922Z,6.80
2018-08-30T12:56:44.245Z,7.00
2018-08-30T12:59:17.813Z,9.53
2018-08-30T13:01:46.976Z,8.87
2018-08-30T13:04:15.280Z,7.37
2018-08-30T13:06:44.438Z,7.70
2018-08-30T13:09:14.280Z,6.80
2018-08-30T13:11:42.893Z,7.33
2018-08-30T13:14:11.273Z,8.20
2018-08-30T13:16:39.758Z,6.80
2018-08-30T13:19:08.212Z,7.63
2018-08-30T13:21:36.517Z,7.80
2018-08-30T13:24:05.276Z,7.80
2018-08-30T13:26:33.503Z,6.90
2018-08-30T13:29:02.601Z,7.87
2018-08-30T13:31:30.911Z,7.80
2018-08-30T13:33:59.461Z,8.23
2018-08-30T13:36:27.796Z,8.20
2018-08-30T13:38:56.442Z,8.57
2018-08-30T13:41:24.693Z,8.23
2018-08-30T13:43:53.050Z,7.47
2018-08-30T13:46:21.224Z,9.17
2018-08-30T13:48:49.480Z,7.30
2018-08-30T13:51:18.061Z,8.00
2018-08-30T13:53:46.195Z,7.80
2018-08-30T13:56:14.651Z,7.90
2018-08-30T13:58:43.086Z,7.93
2018-08-30T14:01:11.515Z,7.50
2018-08-30T14:03:39.461Z,7.90
2018-08-30T14:06:07.856Z,8.03
2018-08-30T14:08:36.021Z,7.80
2018-08-30T14:11:04.637Z,8.20
2018-08-30T14:13:32.744Z,8.47
2018-08-30T14:16:00.755Z,8.50
2018-08-30T14:18:28.980Z,7.97
2018-08-30T14:20:57.168Z,8.13
2018-08-30T14:23:25.276Z,8.50
2018-08-30T14:25:53.378Z,8.30
2018-08-30T14:28:21.610Z,8.43
2018-08-30T14:30:49.824Z,7.50
2018-08-30T14:33:18.528Z,8.50
2018-08-30T14:35:46.676Z,8.40
2018-08-30T14:38:15.120Z,8.30
2018-08-30T14:40:43.496Z,9.33
2018-08-30T14:43:11.737Z,8.20
2018-08-30T14:45:39.826Z,9.57
2018-08-30T14:48:08.201Z,8.40
2018-08-30T14:50:36.829Z,8.47
2018-08-30T14:53:05.230Z,8.40
2018-08-30T14:55:33.486Z,8.10
2018-08-30T14:58:01.749Z,8.87
2018-08-30T15:00:29.963Z,8.67
2018-08-30T15:02:58.127Z,9.00
2018-08-30T15:05:26.819Z,9.17
2018-08-30T15:07:55.112Z,9.70
2018-08-30T15:10:23.275Z,9.73
2018-08-30T15:12:51.399Z,9.80
2018-08-30T15:15:19.529Z,9.67
2018-08-30T15:17:47.620Z,8.70
2018-08-30T15:20:15.763Z,9.00
2018-08-30T15:22:43.981Z,8.07
2018-08-30T15:25:12.076Z,10.77
2018-08-30T15:27:40.256Z,10.50
2018-08-30T15:30:08.476Z,9.30
2018-08-30T15:32:36.616Z,9.30
2018-08-30T15:35:06.908Z,10.00
2018-08-30T15:37:35.172Z,10.80
2018-08-30T15:40:03.344Z,9.00
2018-08-30T15:42:31.442Z,10.90
2018-08-30T15:44:59.516Z,8.97
2018-08-30T15:47:28.113Z,9.00
2018-08-30T15:49:56.238Z,11.40
2018-08-30T15:52:24.282Z,9.00
2018-08-30T15:54:52.539Z,8.90
2018-08-30T15:57:20.773Z,8.53
2018-08-30T15:59:48.992Z,8.87
2018-08-30T16:02:17.250Z,9.70
2018-08-30T16:04:45.321Z,8.10
2018-08-30T16:07:13.381Z,8.33
2018-08-30T16:09:41.472Z,9.30
2018-08-30T16:12:09.817Z,8.57
2018-08-30T16:14:38.039Z,8.77
2018-08-30T16:17:06.338Z,7.70
2018-08-30T16:19:34.603Z,8.37
2018-08-30T16:22:02.685Z,8.87
2018-08-30T16:24:30.846Z,8.27
2018-08-30T16:26:59.102Z,7.67
2018-08-30T16:29:27.377Z,9.83
2018-08-30T16:31:55.484Z,8.67
2018-08-30T16:34:23.649Z,7.17
2018-08-30T16:36:51.938Z,7.90
2018-08-30T16:39:20.360Z,7.77
2018-08-30T16:41:48.574Z,8.60
2018-08-30T16:44:16.848Z,7.90
2018-08-30T16:46:45.208Z,7.87
2018-08-30T16:49:13.510Z,8.90
2018-08-30T16:51:41.840Z,10.77
2018-08-30T16:54:10.125Z,8.73
2018-08-30T16:56:38.473Z,8.03
2018-08-30T16:59:06.870Z,8.73
2018-08-30T17:01:35.386Z,8.53
2018-08-30T17:04:03.702Z,9.57
2018-08-30T17:06:31.783Z,10.73
2018-08-30T17:09:00.065Z,10.00
2018-08-30T17:11:28.225Z,9.73
2018-08-30T17:13:56.689Z,9.33
2018-08-30T17:16:24.781Z,8.67
2018-08-30T17:18:54.173Z,9.07
2018-08-30T17:21:22.437Z,10.30
2018-08-30T17:23:50.703Z,9.97
2018-08-30T17:26:19.248Z,9.90
2018-08-30T17:28:47.593Z,9.63
2018-08-30T17:31:16.091Z,10.50
2018-08-30T17:33:44.265Z,11.13
2018-08-30T17:36:12.463Z,10.67
2018-08-30T17:38:40.558Z,10.10
2018-08-30T17:41:08.685Z,10.00
2018-08-30T17:43:36.877Z,10.33
2018-08-30T17:46:05.017Z,12.93
2018-08-30T17:48:33.129Z,10.30
2018-08-30T17:51:01.412Z,11.67
2018-08-30T17:53:29.534Z,11.27
2018-08-30T17:55:58.857Z,11.03
2018-08-30T17:58:27.146Z,11.97
2018-08-30T18:00:55.352Z,12.50
2018-08-30T18:03:23.493Z,13.63
2018-08-30T18:05:51.761Z,11.07
2018-08-30T18:08:19.832Z,11.47
2018-08-30T18:10:48.128Z,11.13
2018-08-30T18:13:16.507Z,11.13
2018-08-30T18:15:44.671Z,10.53
2018-08-30T18:18:12.862Z,11.40
2018-08-30T18:20:41.112Z,12.00
2018-08-30T18:23:09.186Z,11.97
2018-08-30T18:25:37.389Z,11.03
2018-08-30T18:28:05.499Z,10.40
2018-08-30T18:30:33.794Z,11.80
2018-08-30T18:33:02.041Z,11.40
2018-08-30T18:35:30.133Z,12.10
2018-08-30T18:37:58.241Z,12.07
2018-08-30T18:40:26.440Z,10.83
2018-08-30T18:42:54.517Z,11.60
2018-08-30T18:45:22.641Z,12.17
2018-08-30T18:47:50.770Z,11.07
2018-08-30T18:50:18.873Z,13.37
2018-08-30T18:52:47.024Z,11.60
2018-08-30T18:55:15.168Z,12.00
2018-08-30T18:57:43.460Z,12.27
2018-08-30T19:00:11.594Z,11.20
2018-08-30T19:02:39.870Z,12.40
2018-08-30T19:05:08.018Z,12.00
2018-08-30T19:07:36.497Z,14.00
2018-08-30T19:10:04.982Z,13.40
2018-08-30T19:12:33.240Z,12.53
2018-08-30T19:15:05.936Z,11.90
2018-08-30T19:17:39.846Z,11.83
2018-08-30T19:20:08.431Z,12.00
2018-08-30T19:22:36.662Z,12.10
2018-08-30T19:25:10.506Z,11.90
2018-08-30T19:27:38.882Z,11.90
2018-08-30T19:30:13.193Z,12.10
2018-08-30T19:32:41.791Z,11.80
2018-08-30T19:35:15.404Z,11.77
2018-08-30T19:37:43.856Z,12.47
2018-08-30T19:40:16.446Z,11.70
2018-08-30T19:42:44.656Z,11.43
2018-08-30T19:45:13.071Z,11.53
2018-08-30T19:47:41.477Z,11.50
2018-08-30T19:50:09.636Z,13.10
2018-08-30T19:52:37.992Z,14.53
2018-08-30T19:55:06.526Z,12.63
2018-08-30T19:57:34.606Z,12.07
2018-08-30T20:00:02.730Z,10.87
2018-08-30T20:02:30.978Z,11.63
2018-08-30T20:04:59.228Z,11.93
2018-08-30T20:07:27.338Z,16.47
2018-08-30T20:09:55.664Z,12.80
2018-08-30T20:12:23.755Z,13.23
2018-08-30T20:14:52.096Z,12.90
2018-08-30T20:17:20.269Z,12.83
2018-08-30T20:19:48.511Z,12.40
2018-08-30T20:22:16.704Z,12.67
2018-08-30T20:24:44.973Z,15.70
2018-08-30T20:27:13.084Z,15.53
2018-08-30T20:29:41.189Z,13.30
2018-08-30T20:32:09.285Z,14.60
2018-08-30T20:34:37.391Z,12.87
2018-08-30T20:37:05.875Z,13.47
2018-08-30T20:39:33.964Z,13.20
2018-08-30T20:42:02.518Z,15.17
2018-08-30T20:44:30.603Z,13.70
2018-08-30T20:46:58.829Z,13.97
2018-08-30T20:49:26.892Z,12.47
2018-08-30T20:51:55.037Z,13.20
2018-08-30T20:54:23.408Z,13.60
2018-08-30T20:56:51.740Z,14.23
2018-08-30T20:59:19.968Z,14.73
2018-08-30T21:01:48.393Z,14.60
2018-08-30T21:04:16.756Z,13.30
2018-08-30T21:06:44.959Z,14.97
2018-08-30T21:09:13.095Z,16.33
2018-08-30T21:11:41.202Z,15.80
2018-08-30T21:14:09.260Z,15.23
2018-08-30T21:16:37.382Z,13.57
2018-08-30T21:19:05.472Z,13.37
2018-08-30T21:21:33.576Z,15.40
2018-08-30T21:24:01.657Z,14.70
2018-08-30T21:26:29.793Z,15.23
2018-08-30T21:28:58.004Z,14.90
2018-08-30T21:31:26.121Z,14.37
2018-08-30T21:33:54.256Z,13.10
2018-08-30T21:36:22.296Z,14.60
2018-08-30T21:38:50.424Z,15.00
2018-08-30T21:41:18.666Z,14.53
2018-08-30T21:43:46.849Z,14.57
2018-08-30T21:46:14.983Z,15.67
2018-08-30T21:48:43.320Z,14.53
2018-08-30T21:51:11.499Z,15.20
2018-08-30T21:53:39.580Z,15.10
2018-08-30T21:56:07.703Z,13.57
2018-08-30T21:58:35.937Z,17.93
2018-08-30T22:01:04.099Z,15.07
2018-08-30T22:03:32.209Z,14.97
2018-08-30T22:06:00.681Z,14.07
2018-08-30T22:08:28.744Z,15.00
2018-08-30T22:10:57.208Z,15.40
2018-08-30T22:13:25.280Z,14.00
2018-08-30T22:15:53.601Z,14.43
2018-08-30T22:18:21.675Z,14.23
2018-08-30T22:20:49.863Z,13.73
2018-08-30T22:23:18.047Z,12.70
2018-08-30T22:25:46.104Z,13.53
2018-08-30T22:28:14.180Z,13.97
2018-08-30T22:30:42.238Z,17.03
2018-08-30T22:33:10.330Z,13.23
2018-08-30T22:35:38.493Z,14.07
2018-08-30T22:38:06.668Z,14.30
2018-08-30T22:40:34.858Z,15.87
2018-08-30T22:43:03.233Z,16.53
2018-08-30T22:45:31.305Z,13.63
2018-08-30T22:47:59.490Z,14.73
2018-08-30T22:50:27.574Z,15.03
2018-08-30T22:52:56.316Z,15.33
2018-08-30T22:55:24.393Z,17.13
2018-08-30T22:57:52.624Z,13.17
2018-08-30T23:00:20.769Z,17.30
2018-08-30T23:02:48.861Z,15.63
2018-08-30T23:05:16.956Z,15.40
2018-08-30T23:07:45.016Z,15.60
2018-08-30T23:10:13.154Z,15.50
2018-08-30T23:12:41.256Z,14.43
2018-08-30T23:15:09.346Z,13.87
2018-08-30T23:17:37.422Z,13.43
2018-08-30T23:20:05.565Z,14.50
2018-08-30T23:22:33.645Z,14.70
2018-08-30T23:25:01.722Z,14.23
2018-08-30T23:27:29.897Z,14.00
2018-08-30T23:29:57.978Z,14.37
2018-08-30T23:32:26.115Z,13.33
2018-08-30T23:34:56.152Z,15.93
2018-08-30T23:37:24.596Z,15.90
2018-08-30T23:39:52.844Z,14.90
2018-08-30T23:42:20.973Z,14.03
2018-08-30T23:44:49.025Z,14.60
2018-08-30T23:47:17.116Z,14.73
2018-08-30T23:49:45.287Z,14.93
2018-08-30T23:52:13.522Z,14.50
2018-08-30T23:54:41.641Z,13.93
2018-08-30T23:57:09.878Z,14.63
2018-08-30T23:59:43.554Z,15.40
